01:06 Rennrad Innsbruck ARZ - Radweg - Voels - Hatting - Pettnau - Ri Stams - Rietz
Ort Innsbruck Datum 24.08.2017 17:11:10
Kategorie Rennrad
Distanz 38,02 Kilometer Steigung 139,0 Meter Gefälle -100,0 Meter
Gesamt Zeit 01:06:45 Aktiv 01:05:48 Pause 00:00:57
Durchs. Tempo 34,7 km/h Tempo max. 49,8 km/h Tempo min. 11,8 km/h
Kalorien 0 Durchs. HF 132 BPM HF max. 154 BPM
Wetter 29 °C PartClouds Min/Max: 26,4 °C/30,1 °C; Druck: 1016,3 mbar; Rel. Feuchte: 53,3%; Taupunkt: 18,1 °C; Windgeschwindigkeit: 7,4 km/h; Niederschlag: 0,2mm
Ausrüstung Bontrager - RL Road
Scott - Addict 20
Shimano - CN-HG601-11
Notiz Innsbruck ARZ - Radweg - Voels - Hatting - Pettnau - Ri Stams - Rietz ... trocken, stark windig, wechselnd, warm, bei Stams wegen kommendem Gewitter umgedreht und retour nach Rietz Bhf - zuerst locker, dann flott ... garmin connect
Splits
Distanz (km) Gesamt Zeit Split Zeit Split Tempo Split Tempo Höhenprofil (m)
1,00 00:01:51 00:01:51 00:01:52 32,2 -3,20
2,00 00:04:06 00:02:14 00:02:15 26,7 -4,28
3,00 00:05:53 00:01:46 00:01:47 33,7 2,19
4,00 00:07:33 00:01:40 00:01:40 35,9 1,80
5,00 00:09:16 00:01:42 00:01:43 35,0 3,55
6,00 00:11:19 00:02:02 00:02:03 29,3 10,29
7,00 00:13:01 00:01:42 00:01:43 35,1 -4,47
8,00 00:14:44 00:01:42 00:01:43 35,1 1,07
9,00 00:16:23 00:01:38 00:01:39 36,5 3,39
10,00 00:18:21 00:01:58 00:01:58 30,4 15,27
11,00 00:20:25 00:02:03 00:02:04 29,1 11,66
12,00 00:21:54 00:01:29 00:01:29 40,3 -17,22
13,00 00:23:22 00:01:27 00:01:28 40,9 -6,42
14,00 00:25:09 00:01:46 00:01:47 33,7 5,53
15,00 00:26:48 00:01:39 00:01:40 36,2 0,62
16,00 00:28:30 00:01:41 00:01:42 35,4 1,09
17,00 00:30:21 00:01:51 00:01:51 32,3 5,47
18,00 00:32:23 00:02:01 00:02:02 29,6 13,48
19,00 00:34:09 00:01:46 00:01:46 33,9 -7,80
20,00 00:35:42 00:01:32 00:01:33 38,9 -6,47
21,00 00:37:33 00:01:51 00:01:51 32,3 3,42
22,00 00:39:08 00:01:35 00:01:35 37,7 1,04
23,00 00:40:42 00:01:34 00:01:34 38,3 0,00
24,00 00:42:23 00:01:40 00:01:41 35,7 8,28
25,00 00:44:05 00:01:41 00:01:42 35,4 -3,24
26,00 00:45:44 00:01:39 00:01:39 36,2 3,27
27,00 00:47:23 00:01:39 00:01:39 36,3 1,09
28,00 00:49:03 00:01:40 00:01:40 35,9 -0,45
29,00 00:50:45 00:01:41 00:01:41 35,6 6,44
30,00 00:52:50 00:02:05 00:02:06 28,6 -1,83
31,00 00:54:28 00:01:37 00:01:37 37,1 0,57
32,00 00:56:03 00:01:34 00:01:35 37,9 2,63
33,00 00:57:38 00:01:35 00:01:36 37,6 7,32
34,00 00:59:16 00:01:37 00:01:37 36,9 1,22
35,00 01:00:54 00:01:38 00:01:39 36,5 1,58
36,00 01:02:48 00:01:54 00:01:54 31,6 -2,36
37,00 01:04:10 00:01:21 00:01:21 44,3 2,76
38,00 01:05:38 00:01:28 00:01:28 40,8 -2,26
38,05 01:05:48 00:00:09 00:03:29 17,3 -0,06